Time;durP1;ratioP1;P1;durP2;ratioP2;P2;SDS_P1;SDS_P2;PMS_P1;PMS_P2;Temp;Humidity;BMP_temperature;BMP_pressure;BME280_temperature;BME280_humidity;BME280_pressure;Samples;Min_cycle;Max_cycle;Signal;HPM_P1;HPM_P2
2021/03/01 06:01:00;;;;;;;0.35;0.35;;;;;;;;;;5067459;28;20361;-50
2021/03/01 06:03:28;;;;;;;0.05;0.05;;;;;;;;;;5056209;28;20029;-50
2021/03/01 06:05:54;;;;;;;0.20;0.20;;;;;;;;;;5059765;28;20112;-50
2021/03/01 06:08:20;;;;;;;0.00;0.00;;;;;;;;;;5066619;28;20047;-49
2021/03/01 06:10:47;;;;;;;0.68;0.68;;;;;;;;;;5066591;28;20029;-50
2021/03/01 06:13:13;;;;;;;0.00;0.00;;;;;;;;;;5066644;28;20060;-51
2021/03/01 06:15:39;;;;;;;0.00;0.00;;;;;;;;;;5066703;28;20119;-49
2021/03/01 06:18:09;;;;;;;0.00;0.00;;;;;;;;;;5066892;28;20033;-50
2021/03/01 06:20:36;;;;;;;0.65;0.65;;;;;;;;;;5060479;28;20064;-51
2021/03/01 06:23:03;;;;;;;0.00;0.00;;;;;;;;;;5066545;28;20017;-50
2021/03/01 06:25:30;;;;;;;0.00;0.00;;;;;;;;;;5066499;28;20032;-50
2021/03/01 06:28:01;;;;;;;0.00;0.00;;;;;;;;;;5060887;28;24303;-50
2021/03/01 06:30:27;;;;;;;0.73;0.73;;;;;;;;;;5062825;28;20120;-51
2021/03/01 06:33:03;;;;;;;0.05;0.05;;;;;;;;;;5061851;28;20514;-50
2021/03/01 06:35:30;;;;;;;0.00;0.00;;;;;;;;;;5058381;28;20029;-49
2021/03/01 06:38:12;;;;;;;0.10;0.10;;;;;;;;;;5066420;28;20033;-49
2021/03/01 06:40:38;;;;;;;0.75;0.75;;;;;;;;;;5055466;28;20094;-50
2021/03/01 06:43:30;;;;;;;0.00;0.00;;;;;;;;;;5066206;28;20037;-49
2021/03/01 06:46:15;;;;;;;0.00;0.00;;;;;;;;;;5058555;28;20044;-50
2021/03/01 06:48:42;;;;;;;0.00;0.00;;;;;;;;;;5063646;28;20055;-49
2021/03/01 06:51:08;;;;;;;0.00;0.00;;;;;;;;;;5065689;28;20534;-49
2021/03/01 06:53:35;;;;;;;0.77;0.73;;;;;;;;;;5057276;28;20364;-50
2021/03/01 06:56:01;;;;;;;0.00;0.00;;;;;;;;;;5054093;28;20087;-50
2021/03/01 06:58:28;;;;;;;0.00;0.00;;;;;;;;;;5053324;28;20033;-49
2021/03/01 07:01:04;;;;;;;0.00;0.00;;;;;;;;;;5042255;28;20029;-53
2021/03/01 07:03:30;;;;;;;0.00;0.00;;;;;;;;;;5049829;28;20471;-52
2021/03/01 07:05:57;;;;;;;0.00;0.00;;;;;;;;;;5047646;28;20128;-49
2021/03/01 07:08:36;;;;;;;0.40;0.40;;;;;;;;;;5047327;28;20095;-49
2021/03/01 07:11:03;;;;;;;2.78;2.45;;;;;;;;;;5048510;28;20507;-49
2021/03/01 07:13:30;;;;;;;2.83;2.63;;;;;;;;;;5043917;28;20411;-49
2021/03/01 07:15:57;;;;;;;0.00;0.00;;;;;;;;;;5052526;28;20032;-52
2021/03/01 07:18:23;;;;;;;0.00;0.00;;;;;;;;;;5051793;28;20449;-49
2021/03/01 07:20:50;;;;;;;0.00;0.00;;;;;;;;;;5042358;28;20056;-50
2021/03/01 07:23:17;;;;;;;0.00;0.00;;;;;;;;;;5043231;28;20483;-50
2021/03/01 07:25:44;;;;;;;0.05;0.05;;;;;;;;;;5061665;28;20028;-49
2021/03/01 07:28:14;;;;;;;0.00;0.00;;;;;;;;;;5060420;28;20049;-50
2021/03/01 07:30:44;;;;;;;0.20;0.20;;;;;;;;;;5062410;28;20029;-50
2021/03/01 07:33:14;;;;;;;0.00;0.00;;;;;;;;;;5062170;28;20410;-49
2021/03/01 07:35:41;;;;;;;0.43;0.43;;;;;;;;;;5058090;28;20025;-49
2021/03/01 07:38:08;;;;;;;0.10;0.10;;;;;;;;;;5053769;28;20021;-50
2021/03/01 07:40:34;;;;;;;3.20;2.92;;;;;;;;;;5060195;28;20056;-51
2021/03/01 07:43:01;;;;;;;0.17;0.17;;;;;;;;;;5054445;28;20055;-49
2021/03/01 07:45:28;;;;;;;1.13;1.13;;;;;;;;;;5065270;28;20795;-49
2021/03/01 07:47:54;;;;;;;0.00;0.00;;;;;;;;;;5051843;28;20025;-50
2021/03/01 07:50:37;;;;;;;0.28;0.28;;;;;;;;;;5059360;28;20079;-56
2021/03/01 07:53:04;;;;;;;0.00;0.00;;;;;;;;;;5058689;28;20029;-51
2021/03/01 07:55:30;;;;;;;0.00;0.00;;;;;;;;;;5050913;28;20025;-49
2021/03/01 07:58:00;;;;;;;0.10;0.10;;;;;;;;;;5051557;28;20116;-49
2021/03/01 08:00:29;;;;;;;0.30;0.30;;;;;;;;;;5057182;28;20497;-50
2021/03/01 08:02:55;;;;;;;0.52;0.45;;;;;;;;;;5050981;28;20083;-52
2021/03/01 08:05:22;;;;;;;0.00;0.00;;;;;;;;;;5055531;28;20071;-49
2021/03/01 08:07:49;;;;;;;0.10;0.10;;;;;;;;;;5076378;28;20157;-49
2021/03/01 08:10:20;;;;;;;3.55;3.22;;;;;;;;;;5048897;28;20060;-49
2021/03/01 08:12:48;;;;;;;0.25;0.15;;;;;;;;;;5052801;28;20025;-50
2021/03/01 08:15:20;;;;;;;0.30;0.30;;;;;;;;;;5053012;28;20029;-48
2021/03/01 08:17:50;;;;;;;2.30;1.98;;;;;;;;;;5058650;28;20024;-51
2021/03/01 08:20:16;;;;;;;0.75;0.70;;;;;;;;;;5059833;28;20434;-49
2021/03/01 08:23:10;;;;;;;0.00;0.00;;;;;;;;;;5060585;28;20017;-49
2021/03/01 08:25:51;;;;;;;0.00;0.00;;;;;;;;;;5057593;28;20167;-49
2021/03/01 08:28:17;;;;;;;0.00;0.00;;;;;;;;;;5059100;28;20493;-52
2021/03/01 08:30:43;;;;;;;1.55;0.98;;;;;;;;;;5061326;28;20024;-49
2021/03/01 08:33:09;;;;;;;1.10;1.02;;;;;;;;;;5061535;28;20557;-50
2021/03/01 08:35:54;;;;;;;0.35;0.35;;;;;;;;;;5056092;28;20043;-49
2021/03/01 08:38:40;;;;;;;3.30;2.65;;;;;;;;;;5060043;28;20555;-50
2021/03/01 08:41:07;;;;;;;10.38;1.63;;;;;;;;;;5051208;28;20399;-50
2021/03/01 08:43:41;;;;;;;0.63;0.63;;;;;;;;;;5048174;28;20040;-50
2021/03/01 08:46:08;;;;;;;8.25;0.80;;;;;;;;;;5051206;28;20486;-49
2021/03/01 08:48:44;;;;;;;0.25;0.25;;;;;;;;;;5051916;28;20437;-49
2021/03/01 08:51:10;;;;;;;0.57;0.57;;;;;;;;;;5053416;28;20040;-53
2021/03/01 08:53:38;;;;;;;8.65;2.60;;;;;;;;;;5052407;28;20043;-49
2021/03/01 08:56:05;;;;;;;0.73;0.73;;;;;;;;;;5049960;28;20100;-49
2021/03/01 08:58:35;;;;;;;0.00;0.00;;;;;;;;;;5050510;28;20380;-50
2021/03/01 09:01:05;;;;;;;0.77;0.73;;;;;;;;;;5049208;28;20032;-50
2021/03/01 09:03:35;;;;;;;0.10;0.10;;;;;;;;;;5052802;28;20036;-49
2021/03/01 09:06:05;;;;;;;1.65;1.55;;;;;;;;;;5051395;28;20081;-49
2021/03/01 09:08:38;;;;;;;0.63;0.43;;;;;;;;;;5052107;28;20543;-49
2021/03/01 09:11:15;;;;;;;4.80;3.95;;;;;;;;;;5052093;28;20096;-50
2021/03/01 09:13:42;;;;;;;1.40;0.90;;;;;;;;;;5049859;28;20061;-49
2021/03/01 09:16:08;;;;;;;11.50;6.53;;;;;;;;;;5047634;28;20024;-49
2021/03/01 09:18:35;;;;;;;0.22;0.22;;;;;;;;;;5050013;28;20032;-53
2021/03/01 09:21:01;;;;;;;2.70;2.03;;;;;;;;;;5050257;28;20020;-52
2021/03/01 09:23:35;;;;;;;0.32;0.32;;;;;;;;;;5045009;28;20036;-51
2021/03/01 09:26:01;;;;;;;7.72;3.80;;;;;;;;;;5046521;28;20025;-51
2021/03/01 09:28:29;;;;;;;7.28;6.57;;;;;;;;;;5046012;28;20025;-50
2021/03/01 09:31:08;;;;;;;3.13;1.13;;;;;;;;;;5047108;28;20017;-50
2021/03/01 09:33:35;;;;;;;2.22;2.13;;;;;;;;;;5049420;28;20412;-51
2021/03/01 09:36:01;;;;;;;1.27;0.52;;;;;;;;;;5049838;28;20161;-49
2021/03/01 09:38:28;;;;;;;6.18;2.90;;;;;;;;;;5047529;28;20033;-49
2021/03/01 09:41:26;;;;;;;11.23;3.22;;;;;;;;;;5048685;28;20036;-48
2021/03/01 09:43:52;;;;;;;0.17;0.17;;;;;;;;;;5026264;28;20153;-52
2021/03/01 09:46:19;;;;;;;17.05;8.68;;;;;;;;;;5025312;28;20534;-48
2021/03/01 09:48:49;;;;;;;0.68;0.68;;;;;;;;;;5026823;28;20022;-51
2021/03/01 09:51:16;;;;;;;8.50;4.63;;;;;;;;;;5027518;28;20036;-50
2021/03/01 09:53:42;;;;;;;0.15;0.15;;;;;;;;;;5026542;28;20030;-50
2021/03/01 09:56:08;;;;;;;9.43;3.50;;;;;;;;;;5026209;28;20041;-49
2021/03/01 09:58:39;;;;;;;6.60;5.63;;;;;;;;;;5025448;28;20041;-49
2021/03/01 10:01:09;;;;;;;1.33;1.13;;;;;;;;;;5026767;28;20101;-50
2021/03/01 10:03:40;;;;;;;6.97;2.80;;;;;;;;;;5036884;28;20445;-51
2021/03/01 10:06:06;;;;;;;2.15;1.58;;;;;;;;;;5028674;28;20049;-51
2021/03/01 10:08:33;;;;;;;14.30;7.90;;;;;;;;;;5027016;28;20395;-50
2021/03/01 10:10:59;;;;;;;7.53;5.57;;;;;;;;;;5026772;28;20037;-49
2021/03/01 10:13:28;;;;;;;0.73;0.73;;;;;;;;;;5026298;28;20045;-51
2021/03/01 10:15:55;;;;;;;18.63;11.55;;;;;;;;;;5024953;28;20163;-53
2021/03/01 10:18:22;;;;;;;0.10;0.10;;;;;;;;;;5011533;28;20391;-52
2021/03/01 10:20:53;;;;;;;2.97;2.67;;;;;;;;;;5048583;28;20413;-51
2021/03/01 10:23:26;;;;;;;4.50;3.20;;;;;;;;;;5048353;28;20040;-49
2021/03/01 10:26:01;;;;;;;6.63;1.38;;;;;;;;;;5045014;28;20025;-52
2021/03/01 10:28:29;;;;;;;2.13;2.03;;;;;;;;;;5047872;28;20211;-49
2021/03/01 10:31:15;;;;;;;2.75;2.58;;;;;;;;;;5046985;28;20104;-50
2021/03/01 10:34:07;;;;;;;1.23;1.13;;;;;;;;;;5048257;28;20024;-52
2021/03/01 10:36:34;;;;;;;1.02;0.98;;;;;;;;;;5048793;28;20033;-52
2021/03/01 10:39:03;;;;;;;7.57;2.78;;;;;;;;;;5051145;28;20519;-49
2021/03/01 10:41:34;;;;;;;0.10;0.10;;;;;;;;;;5048995;28;20029;-53
2021/03/01 10:44:02;;;;;;;3.53;1.23;;;;;;;;;;5050186;28;20029;-53
2021/03/01 10:46:48;;;;;;;4.28;3.00;;;;;;;;;;5050774;28;20044;-55
2021/03/01 10:49:23;;;;;;;18.88;10.50;;;;;;;;;;5036433;28;20033;-53
2021/03/01 10:51:50;;;;;;;9.13;4.55;;;;;;;;;;5051787;28;20037;-52
2021/03/01 10:54:17;;;;;;;7.55;5.70;;;;;;;;;;5052655;28;20040;-53
2021/03/01 10:56:43;;;;;;;0.20;0.20;;;;;;;;;;5049975;28;20048;-51
2021/03/01 10:59:09;;;;;;;13.60;4.97;;;;;;;;;;5049686;28;20045;-56
2021/03/01 11:01:36;;;;;;;2.38;2.17;;;;;;;;;;5049844;28;20039;-54
2021/03/01 11:04:03;;;;;;;10.32;5.70;;;;;;;;;;5050122;28;20025;-50
2021/03/01 11:06:29;;;;;;;4.28;3.47;;;;;;;;;;5053218;28;20049;-49
2021/03/01 11:08:56;;;;;;;1.25;1.15;;;;;;;;;;5050100;28;20025;-51
2021/03/01 11:11:22;;;;;;;1.83;1.73;;;;;;;;;;5049589;28;20033;-50
2021/03/01 11:13:48;;;;;;;1.75;0.63;;;;;;;;;;5081918;28;20071;-55
2021/03/01 11:16:14;;;;;;;6.85;5.22;;;;;;;;;;5050156;28;20588;-50
2021/03/01 11:18:40;;;;;;;12.55;7.03;;;;;;;;;;5052021;28;20051;-50
2021/03/01 11:21:07;;;;;;;2.97;2.33;;;;;;;;;;5050736;28;20039;-49
2021/03/01 11:23:33;;;;;;;2.38;2.25;;;;;;;;;;5050256;28;20087;-51
2021/03/01 11:25:59;;;;;;;0.82;0.82;;;;;;;;;;5049470;28;20029;-50
2021/03/01 11:28:25;;;;;;;6.30;1.13;;;;;;;;;;5053555;28;20024;-50
2021/03/01 11:30:51;;;;;;;1.08;0.63;;;;;;;;;;5061273;28;20040;-51
2021/03/01 11:33:18;;;;;;;24.05;5.95;;;;;;;;;;5060069;28;20028;-54
2021/03/01 11:35:44;;;;;;;4.75;2.72;;;;;;;;;;5057750;28;20035;-50
2021/03/01 11:38:10;;;;;;;1.20;0.93;;;;;;;;;;5058435;28;20013;-50
2021/03/01 11:40:36;;;;;;;1.20;1.08;;;;;;;;;;5056390;28;20036;-53
2021/03/01 11:43:02;;;;;;;1.90;1.80;;;;;;;;;;5054927;28;20108;-53
2021/03/01 11:45:29;;;;;;;4.28;2.05;;;;;;;;;;5052867;28;20025;-50
2021/03/01 11:47:55;;;;;;;8.88;3.53;;;;;;;;;;5049313;28;20036;-51
2021/03/01 11:50:22;;;;;;;5.18;1.35;;;;;;;;;;5049579;28;20033;-50
2021/03/01 11:52:48;;;;;;;4.50;3.35;;;;;;;;;;5049160;28;20017;-54
2021/03/01 11:55:14;;;;;;;4.60;2.20;;;;;;;;;;5048806;28;20025;-53
2021/03/01 11:57:40;;;;;;;5.50;1.27;;;;;;;;;;5051445;28;20390;-52
2021/03/01 12:00:07;;;;;;;5.68;1.88;;;;;;;;;;5049555;28;20060;-54
2021/03/01 12:02:38;;;;;;;1.63;1.52;;;;;;;;;;5051326;28;20021;-50
2021/03/01 12:05:04;;;;;;;0.95;0.68;;;;;;;;;;5049140;28;20032;-50
2021/03/01 12:07:30;;;;;;;5.10;1.75;;;;;;;;;;5049266;28;20027;-54
2021/03/01 12:09:57;;;;;;;4.30;4.03;;;;;;;;;;5049893;28;20421;-50
2021/03/01 12:12:23;;;;;;;1.65;1.48;;;;;;;;;;5053615;28;20032;-52
2021/03/01 12:14:49;;;;;;;0.32;0.32;;;;;;;;;;5048932;28;20047;-53
2021/03/01 12:17:15;;;;;;;0.10;0.10;;;;;;;;;;5048016;28;20364;-54
2021/03/01 12:19:42;;;;;;;0.20;0.20;;;;;;;;;;5080467;28;20028;-50
2021/03/01 12:22:08;;;;;;;0.40;0.40;;;;;;;;;;5048990;28;20036;-52
2021/03/01 12:24:34;;;;;;;10.23;5.80;;;;;;;;;;5051280;28;20029;-52
2021/03/01 12:27:00;;;;;;;7.13;3.53;;;;;;;;;;5046917;28;20072;-49
2021/03/01 12:29:26;;;;;;;3.63;2.00;;;;;;;;;;5048316;28;20021;-49
2021/03/01 12:31:52;;;;;;;1.63;1.52;;;;;;;;;;5048611;28;20598;-52
2021/03/01 12:34:19;;;;;;;5.93;4.38;;;;;;;;;;5047277;28;20075;-52
2021/03/01 12:36:45;;;;;;;3.20;2.38;;;;;;;;;;5049892;28;20061;-51
2021/03/01 12:39:11;;;;;;;3.53;2.30;;;;;;;;;;5049668;28;20040;-51
2021/03/01 12:41:37;;;;;;;4.88;3.60;;;;;;;;;;5048595;28;20032;-52
2021/03/01 12:44:03;;;;;;;4.78;2.53;;;;;;;;;;5048383;28;20118;-51
2021/03/01 12:46:29;;;;;;;5.10;1.42;;;;;;;;;;5048458;28;20526;-50
2021/03/01 12:48:56;;;;;;;5.13;3.33;;;;;;;;;;5049242;28;20072;-49
2021/03/01 12:51:22;;;;;;;0.10;0.10;;;;;;;;;;5052122;28;20078;-49
2021/03/01 12:53:48;;;;;;;3.10;2.05;;;;;;;;;;5050156;28;20056;-49
2021/03/01 12:56:14;;;;;;;4.00;2.63;;;;;;;;;;5049955;28;20513;-51
2021/03/01 12:58:40;;;;;;;11.35;3.20;;;;;;;;;;5047400;28;20490;-49
2021/03/01 13:01:07;;;;;;;0.43;0.43;;;;;;;;;;5049558;28;20024;-53
2021/03/01 13:03:33;;;;;;;0.75;0.75;;;;;;;;;;5050811;28;20029;-52
2021/03/01 13:06:00;;;;;;;0.88;0.88;;;;;;;;;;5050512;28;20074;-49
2021/03/01 13:08:26;;;;;;;3.72;2.38;;;;;;;;;;5048381;28;20071;-48
2021/03/01 13:10:54;;;;;;;2.38;2.17;;;;;;;;;;5048483;28;20068;-49
2021/03/01 13:13:20;;;;;;;7.88;4.13;;;;;;;;;;5047691;28;20075;-48
2021/03/01 13:15:46;;;;;;;3.63;3.33;;;;;;;;;;5050579;28;20061;-48
2021/03/01 13:18:12;;;;;;;4.32;2.45;;;;;;;;;;5049690;28;20032;-48
2021/03/01 13:20:39;;;;;;;1.55;1.45;;;;;;;;;;5046126;28;20099;-50
2021/03/01 13:23:05;;;;;;;4.70;3.70;;;;;;;;;;5047830;28;20063;-48
2021/03/01 13:25:32;;;;;;;9.27;2.70;;;;;;;;;;5048025;28;20028;-51
2021/03/01 13:27:58;;;;;;;5.90;2.97;;;;;;;;;;5032369;28;20028;-50
2021/03/01 13:30:25;;;;;;;0.40;0.40;;;;;;;;;;5050659;28;20021;-53
2021/03/01 13:32:51;;;;;;;2.05;1.13;;;;;;;;;;5047854;28;20032;-51
2021/03/01 13:35:17;;;;;;;1.48;1.38;;;;;;;;;;5046848;28;20482;-51
2021/03/01 13:37:43;;;;;;;0.52;0.52;;;;;;;;;;5049113;28;20035;-50
2021/03/01 13:40:09;;;;;;;0.10;0.10;;;;;;;;;;5049443;28;20036;-51
2021/03/01 13:42:38;;;;;;;1.50;1.40;;;;;;;;;;5050777;28;20474;-51
2021/03/01 13:45:13;;;;;;;2.33;2.05;;;;;;;;;;5047521;28;20119;-50
2021/03/01 13:47:42;;;;;;;3.00;1.75;;;;;;;;;;5047317;28;20137;-49
2021/03/01 13:50:09;;;;;;;0.88;0.88;;;;;;;;;;5047462;28;20024;-50
2021/03/01 13:52:35;;;;;;;5.05;3.38;;;;;;;;;;5047590;28;20029;-50
2021/03/01 13:55:01;;;;;;;9.80;4.25;;;;;;;;;;5047573;28;20025;-50
2021/03/01 13:57:27;;;;;;;2.28;2.08;;;;;;;;;;5050989;28;20032;-50
2021/03/01 13:59:54;;;;;;;2.42;1.25;;;;;;;;;;5047164;28;20126;-50
2021/03/01 14:02:20;;;;;;;0.35;0.35;;;;;;;;;;5047278;28;20025;-50
2021/03/01 14:04:46;;;;;;;19.30;5.20;;;;;;;;;;5047068;28;20033;-50
2021/03/01 14:07:12;;;;;;;5.47;2.50;;;;;;;;;;5047651;28;20399;-50
2021/03/01 14:09:38;;;;;;;1.10;0.68;;;;;;;;;;5049676;28;20041;-49
2021/03/01 14:12:04;;;;;;;2.65;2.22;;;;;;;;;;5052000;28;20154;-50
2021/03/01 14:14:31;;;;;;;0.77;0.43;;;;;;;;;;5050828;28;20028;-50
2021/03/01 14:16:57;;;;;;;3.25;2.50;;;;;;;;;;5051377;28;20630;-50
2021/03/01 14:19:23;;;;;;;6.53;3.72;;;;;;;;;;5050994;28;20033;-50
2021/03/01 14:21:49;;;;;;;2.50;1.75;;;;;;;;;;5052699;28;20025;-50
2021/03/01 14:24:15;;;;;;;6.25;3.17;;;;;;;;;;5052072;28;20029;-50
2021/03/01 14:26:41;;;;;;;8.63;3.92;;;;;;;;;;5051807;28;20490;-52
2021/03/01 14:29:07;;;;;;;6.28;3.28;;;;;;;;;;5051695;28;20025;-54
2021/03/01 14:31:33;;;;;;;4.68;2.42;;;;;;;;;;5051084;28;20025;-50
2021/03/01 14:33:59;;;;;;;5.13;2.72;;;;;;;;;;5051074;28;20024;-50
2021/03/01 14:36:26;;;;;;;0.43;0.43;;;;;;;;;;5053904;28;20372;-51
2021/03/01 14:38:52;;;;;;;3.58;2.70;;;;;;;;;;5050458;28;20043;-50
2021/03/01 14:41:18;;;;;;;6.80;4.15;;;;;;;;;;5050978;28;20036;-50
2021/03/01 14:43:44;;;;;;;10.77;6.72;;;;;;;;;;5050274;28;20029;-51
2021/03/01 14:46:10;;;;;;;6.50;4.43;;;;;;;;;;5052253;28;20376;-53
2021/03/01 14:48:36;;;;;;;1.77;1.67;;;;;;;;;;5052888;28;20017;-50
2021/03/01 14:51:02;;;;;;;1.38;1.27;;;;;;;;;;5052365;28;20032;-53
2021/03/01 14:53:29;;;;;;;3.08;2.25;;;;;;;;;;5051992;28;20575;-50
2021/03/01 14:55:56;;;;;;;9.68;6.43;;;;;;;;;;5052928;28;20541;-50
2021/03/01 14:58:22;;;;;;;2.15;1.25;;;;;;;;;;5052101;28;20465;-51
2021/03/01 15:00:48;;;;;;;0.17;0.17;;;;;;;;;;5051333;28;20053;-50
2021/03/01 15:03:15;;;;;;;6.45;2.28;;;;;;;;;;5053085;28;20017;-49
2021/03/01 15:05:41;;;;;;;0.63;0.63;;;;;;;;;;5051535;28;20067;-54
2021/03/01 15:08:07;;;;;;;0.90;0.77;;;;;;;;;;5051809;28;20467;-49
2021/03/01 15:10:33;;;;;;;2.42;2.00;;;;;;;;;;5051752;28;20032;-49
2021/03/01 15:12:59;;;;;;;0.98;0.52;;;;;;;;;;5051749;28;20482;-51
2021/03/01 15:15:26;;;;;;;11.00;3.13;;;;;;;;;;5052728;28;20507;-49
2021/03/01 15:17:52;;;;;;;8.63;5.13;;;;;;;;;;5051399;28;20179;-50
2021/03/01 15:20:18;;;;;;;0.57;0.57;;;;;;;;;;5051880;28;20607;-50
2021/03/01 15:22:44;;;;;;;9.15;3.38;;;;;;;;;;5051246;28;20047;-50
2021/03/01 15:25:11;;;;;;;0.63;0.60;;;;;;;;;;5051435;28;20538;-52
2021/03/01 15:27:37;;;;;;;3.10;2.15;;;;;;;;;;5052294;28;20078;-50
2021/03/01 15:30:06;;;;;;;4.93;2.17;;;;;;;;;;5052105;28;20029;-50
2021/03/01 15:32:32;;;;;;;10.02;4.47;;;;;;;;;;5049660;28;20036;-50
2021/03/01 15:34:58;;;;;;;0.10;0.10;;;;;;;;;;5048328;28;20494;-50
2021/03/01 15:37:25;;;;;;;3.67;2.08;;;;;;;;;;5048835;28;20111;-50
2021/03/01 15:39:51;;;;;;;4.95;2.47;;;;;;;;;;5051021;28;20107;-52
2021/03/01 15:42:17;;;;;;;5.68;3.67;;;;;;;;;;5051882;28;20035;-50
2021/03/01 15:44:43;;;;;;;2.83;1.38;;;;;;;;;;5044122;28;20020;-50
2021/03/01 15:47:09;;;;;;;7.97;3.10;;;;;;;;;;5050246;28;20033;-50
2021/03/01 15:49:35;;;;;;;6.57;5.07;;;;;;;;;;5050585;28;20021;-50
2021/03/01 15:52:02;;;;;;;14.25;4.05;;;;;;;;;;5051058;28;20033;-51
2021/03/01 15:54:28;;;;;;;1.60;1.50;;;;;;;;;;5052504;28;20037;-49
2021/03/01 15:56:54;;;;;;;0.82;0.82;;;;;;;;;;5050151;28;20047;-51
2021/03/01 15:59:21;;;;;;;1.45;1.20;;;;;;;;;;5049925;28;20040;-49
2021/03/01 16:01:47;;;;;;;7.03;4.20;;;;;;;;;;5050001;28;20021;-52
2021/03/01 16:04:13;;;;;;;2.97;1.58;;;;;;;;;;5050391;28;20074;-53
2021/03/01 16:06:39;;;;;;;5.80;2.53;;;;;;;;;;5051823;28;20052;-50
2021/03/01 16:09:05;;;;;;;28.15;2.97;;;;;;;;;;5050346;28;20055;-51
2021/03/01 16:11:31;;;;;;;1.73;1.63;;;;;;;;;;5049554;28;20036;-50
2021/03/01 16:13:58;;;;;;;8.65;2.80;;;;;;;;;;5046843;28;20029;-51
2021/03/01 16:16:24;;;;;;;10.32;8.38;;;;;;;;;;5048930;28;20021;-52
2021/03/01 16:18:53;;;;;;;1.35;0.75;;;;;;;;;;5050645;28;20126;-53
2021/03/01 16:21:20;;;;;;;3.85;1.20;;;;;;;;;;5051324;28;20032;-49
2021/03/01 16:23:46;;;;;;;0.20;0.20;;;;;;;;;;5050223;28;20027;-53
2021/03/01 16:26:12;;;;;;;6.32;3.75;;;;;;;;;;5047299;28;20494;-59
2021/03/01 16:28:38;;;;;;;4.03;1.33;;;;;;;;;;5041020;28;20040;-52
2021/03/01 16:31:05;;;;;;;6.65;4.32;;;;;;;;;;5045707;28;20202;-54
2021/03/01 16:33:31;;;;;;;5.72;2.92;;;;;;;;;;5050232;28;20017;-53
2021/03/01 16:35:57;;;;;;;13.48;5.15;;;;;;;;;;5052931;28;20045;-52
2021/03/01 16:38:23;;;;;;;1.30;1.20;;;;;;;;;;5057940;28;20083;-52
2021/03/01 16:40:49;;;;;;;0.10;0.10;;;;;;;;;;5057568;28;20060;-54
2021/03/01 16:43:17;;;;;;;0.85;0.85;;;;;;;;;;5049267;28;20056;-56
2021/03/01 16:45:47;;;;;;;1.25;1.15;;;;;;;;;;5054557;28;20037;-53
2021/03/01 16:48:15;;;;;;;12.23;6.35;;;;;;;;;;5055037;28;20502;-53
2021/03/01 16:50:43;;;;;;;1.95;1.38;;;;;;;;;;5050383;28;20448;-53
2021/03/01 16:53:09;;;;;;;0.10;0.10;;;;;;;;;;5042002;28;20031;-51
2021/03/01 16:55:36;;;;;;;4.35;2.67;;;;;;;;;;5048259;28;20027;-54
2021/03/01 16:58:02;;;;;;;0.43;0.43;;;;;;;;;;5048289;28;20025;-52
2021/03/01 17:00:28;;;;;;;3.97;3.60;;;;;;;;;;5050905;28;20060;-52
2021/03/01 17:02:56;;;;;;;0.70;0.63;;;;;;;;;;5050005;28;20025;-53
2021/03/01 17:05:22;;;;;;;7.28;3.92;;;;;;;;;;5047098;28;20047;-54
2021/03/01 17:07:53;;;;;;;0.40;0.40;;;;;;;;;;5045116;28;20188;-53
2021/03/01 17:10:19;;;;;;;1.25;1.20;;;;;;;;;;5045158;28;20730;-53
2021/03/01 17:12:59;;;;;;;6.00;4.57;;;;;;;;;;5046020;28;20020;-50
2021/03/01 17:15:27;;;;;;;13.90;3.85;;;;;;;;;;5048663;28;20063;-52
2021/03/01 17:17:57;;;;;;;1.95;1.85;;;;;;;;;;5048648;28;20025;-52
2021/03/01 17:20:23;;;;;;;0.77;0.40;;;;;;;;;;5044625;28;20130;-54
2021/03/01 17:22:51;;;;;;;3.47;2.28;;;;;;;;;;5044801;28;20479;-53
2021/03/01 17:25:18;;;;;;;3.25;3.15;;;;;;;;;;5043551;28;20399;-55
2021/03/01 17:27:45;;;;;;;2.10;1.17;;;;;;;;;;5048371;28;20017;-51
2021/03/01 17:30:12;;;;;;;0.88;0.88;;;;;;;;;;5047527;28;20047;-52
2021/03/01 17:32:39;;;;;;;5.45;1.35;;;;;;;;;;5046687;28;20033;-53
2021/03/01 17:35:06;;;;;;;6.13;4.32;;;;;;;;;;5046772;28;20028;-51
2021/03/01 17:37:32;;;;;;;0.15;0.15;;;;;;;;;;5047042;28;20052;-55
2021/03/01 17:39:59;;;;;;;1.77;0.88;;;;;;;;;;5065761;28;20437;-50
2021/03/01 17:42:27;;;;;;;0.30;0.30;;;;;;;;;;5038465;28;20029;-50
2021/03/01 17:44:53;;;;;;;4.70;3.33;;;;;;;;;;5047713;28;20075;-50
2021/03/01 17:47:22;;;;;;;3.13;2.88;;;;;;;;;;5046026;28;20108;-49
2021/03/01 17:49:55;;;;;;;4.90;3.50;;;;;;;;;;5042889;28;20398;-52
2021/03/01 17:52:21;;;;;;;1.48;1.38;;;;;;;;;;5045850;28;20033;-51
2021/03/01 17:55:06;;;;;;;2.92;2.83;;;;;;;;;;5046381;28;20029;-54
2021/03/01 17:57:38;;;;;;;1.98;1.08;;;;;;;;;;5045266;28;20078;-51
2021/03/01 18:00:08;;;;;;;1.50;1.40;;;;;;;;;;5046393;28;20080;-51
2021/03/01 18:02:42;;;;;;;2.22;1.65;;;;;;;;;;5045956;28;20025;-53
2021/03/01 18:05:09;;;;;;;4.82;3.60;;;;;;;;;;5048389;28;20056;-51
2021/03/01 18:07:39;;;;;;;1.40;1.40;;;;;;;;;;5048378;28;20025;-51
2021/03/01 18:10:05;;;;;;;0.35;0.35;;;;;;;;;;5047810;28;20056;-51
2021/03/01 18:12:32;;;;;;;0.10;0.10;;;;;;;;;;5049441;28;20518;-53
2021/03/01 18:14:59;;;;;;;3.50;1.35;;;;;;;;;;5047194;28;20618;-53
2021/03/01 18:17:25;;;;;;;0.10;0.10;;;;;;;;;;5046629;28;20029;-61
2021/03/01 18:19:53;;;;;;;1.13;1.13;;;;;;;;;;5046629;28;20037;-59
2021/03/01 18:22:19;;;;;;;0.10;0.10;;;;;;;;;;5033940;28;20021;-58
2021/03/01 18:24:45;;;;;;;0.20;0.20;;;;;;;;;;5046716;28;20187;-71
2021/03/01 18:27:12;;;;;;;0.10;0.10;;;;;;;;;;5043598;28;20013;-61
2021/03/01 18:29:41;;;;;;;0.10;0.10;;;;;;;;;;5037054;28;20491;-58
2021/03/01 18:32:09;;;;;;;0.10;0.10;;;;;;;;;;5040390;28;20108;-58
2021/03/01 18:34:48;;;;;;;7.03;3.80;;;;;;;;;;5045768;28;20029;-58
2021/03/01 18:37:15;;;;;;;12.77;6.43;;;;;;;;;;5032995;28;20021;-60
2021/03/01 18:39:43;;;;;;;0.30;0.30;;;;;;;;;;5033104;28;20048;-59
2021/03/01 18:42:10;;;;;;;0.13;0.13;;;;;;;;;;5039222;28;20499;-59
2021/03/01 18:44:38;;;;;;;0.52;0.52;;;;;;;;;;5043871;28;20036;-58
2021/03/01 18:47:06;;;;;;;0.10;0.10;;;;;;;;;;5042219;28;20022;-55
2021/03/01 18:49:33;;;;;;;0.65;0.65;;;;;;;;;;5032896;28;20468;-58
2021/03/01 18:51:59;;;;;;;0.10;0.10;;;;;;;;;;5030943;28;20056;-57
2021/03/01 18:54:25;;;;;;;0.47;0.47;;;;;;;;;;5033980;28;20479;-59
2021/03/01 18:56:51;;;;;;;1.20;1.10;;;;;;;;;;5036521;28;20025;-59
2021/03/01 18:59:17;;;;;;;0.90;0.90;;;;;;;;;;5036216;28;20045;-59
2021/03/01 19:01:43;;;;;;;0.10;0.10;;;;;;;;;;5038980;28;20047;-59
2021/03/01 19:04:09;;;;;;;2.55;1.05;;;;;;;;;;5050568;28;20898;-58
2021/03/01 19:06:36;;;;;;;7.18;4.68;;;;;;;;;;5049402;28;20021;-58
2021/03/01 19:09:02;;;;;;;3.95;3.55;;;;;;;;;;5050167;28;20040;-58
2021/03/01 19:11:28;;;;;;;0.10;0.10;;;;;;;;;;5046603;28;20514;-58
2021/03/01 19:13:54;;;;;;;0.50;0.50;;;;;;;;;;5051553;28;20017;-59
2021/03/01 19:16:20;;;;;;;1.38;1.35;;;;;;;;;;5051360;28;20025;-59
2021/03/01 19:18:46;;;;;;;0.15;0.15;;;;;;;;;;5051689;28;20036;-54
2021/03/01 19:21:12;;;;;;;1.67;1.55;;;;;;;;;;5047773;28;20471;-54
2021/03/01 19:23:38;;;;;;;0.35;0.35;;;;;;;;;;5049483;28;20123;-55
2021/03/01 19:26:05;;;;;;;0.55;0.55;;;;;;;;;;5049192;28;20025;-51
2021/03/01 19:28:31;;;;;;;0.45;0.45;;;;;;;;;;5051521;28;20025;-53
2021/03/01 19:30:57;;;;;;;0.10;0.10;;;;;;;;;;5046761;28;20050;-52
2021/03/01 19:33:23;;;;;;;1.75;1.27;;;;;;;;;;5047801;28;20086;-51
2021/03/01 19:35:50;;;;;;;1.67;1.58;;;;;;;;;;5077670;28;20427;-59
2021/03/01 19:38:16;;;;;;;0.50;0.50;;;;;;;;;;5049167;28;20074;-55
2021/03/01 19:40:43;;;;;;;1.75;1.67;;;;;;;;;;5048355;28;20037;-53
2021/03/01 19:43:09;;;;;;;0.15;0.15;;;;;;;;;;5044346;28;20574;-53
2021/03/01 19:45:35;;;;;;;0.13;0.13;;;;;;;;;;5048822;28;20024;-53
2021/03/01 19:48:01;;;;;;;0.13;0.13;;;;;;;;;;5046026;28;20025;-53
2021/03/01 19:50:28;;;;;;;0.10;0.10;;;;;;;;;;5045730;28;20485;-50
2021/03/01 19:52:54;;;;;;;0.10;0.10;;;;;;;;;;5033845;28;20665;-51
2021/03/01 19:55:20;;;;;;;0.10;0.10;;;;;;;;;;5046852;28;20025;-53
2021/03/01 19:57:46;;;;;;;0.13;0.13;;;;;;;;;;5045336;28;20148;-50
2021/03/01 20:00:12;;;;;;;0.10;0.10;;;;;;;;;;5043461;28;20040;-54
2021/03/01 20:02:39;;;;;;;0.20;0.20;;;;;;;;;;5044747;28;20029;-52
2021/03/01 20:05:05;;;;;;;0.10;0.10;;;;;;;;;;5044479;28;20022;-55
2021/03/01 20:07:32;;;;;;;0.10;0.10;;;;;;;;;;5043417;28;20087;-53
2021/03/01 20:09:58;;;;;;;0.20;0.20;;;;;;;;;;5041225;28;20064;-55
2021/03/01 20:12:25;;;;;;;0.20;0.20;;;;;;;;;;5048793;28;20029;-51
2021/03/01 20:14:51;;;;;;;0.10;0.10;;;;;;;;;;5044791;28;20521;-53
2021/03/01 20:17:17;;;;;;;0.10;0.10;;;;;;;;;;5043819;28;20328;-57
2021/03/01 20:19:43;;;;;;;0.10;0.10;;;;;;;;;;5043635;28;20033;-52
2021/03/01 20:22:11;;;;;;;0.10;0.10;;;;;;;;;;5047128;28;20411;-51
2021/03/01 20:24:40;;;;;;;0.10;0.10;;;;;;;;;;5042859;28;20199;-50
2021/03/01 20:27:06;;;;;;;0.10;0.10;;;;;;;;;;5041580;28;20094;-53
2021/03/01 20:29:34;;;;;;;12.52;3.42;;;;;;;;;;5043464;28;20054;-55
2021/03/01 20:32:01;;;;;;;0.10;0.10;;;;;;;;;;5044488;28;20909;-54
2021/03/01 20:34:28;;;;;;;0.50;0.50;;;;;;;;;;5042983;28;20033;-54
2021/03/01 20:36:54;;;;;;;0.10;0.10;;;;;;;;;;5046983;28;20020;-53
2021/03/01 20:39:20;;;;;;;0.10;0.10;;;;;;;;;;5045328;28;20522;-55
2021/03/01 20:41:46;;;;;;;0.10;0.10;;;;;;;;;;5042791;28;20033;-55
2021/03/01 20:44:13;;;;;;;0.10;0.10;;;;;;;;;;5044097;28;20117;-55
2021/03/01 20:46:39;;;;;;;0.10;0.10;;;;;;;;;;5043540;28;20036;-54